sensor_id;sensor_type;location;lat;lon;timestamp;P1;durP1;ratioP1;P2;durP2;ratioP2
52674;SDS011;38569;52.722;6.440;2023-02-28T00:00:16;6.50;;;3.63;;
52674;SDS011;38569;52.722;6.440;2023-02-28T00:02:43;4.35;;;3.08;;
52674;SDS011;38569;52.722;6.440;2023-02-28T00:05:10;6.13;;;3.40;;
52674;SDS011;38569;52.722;6.440;2023-02-28T00:07:37;11.20;;;3.55;;
52674;SDS011;38569;52.722;6.440;2023-02-28T00:10:07;13.32;;;3.97;;
52674;SDS011;38569;52.722;6.440;2023-02-28T00:12:34;5.90;;;3.38;;
52674;SDS011;38569;52.722;6.440;2023-02-28T00:15:01;5.75;;;3.72;;
52674;SDS011;38569;52.722;6.440;2023-02-28T00:17:27;8.85;;;4.70;;
52674;SDS011;38569;52.722;6.440;2023-02-28T00:19:53;7.85;;;3.58;;
52674;SDS011;38569;52.722;6.440;2023-02-28T00:22:20;10.90;;;3.55;;
52674;SDS011;38569;52.722;6.440;2023-02-28T00:24:46;13.13;;;4.55;;
52674;SDS011;38569;52.722;6.440;2023-02-28T00:27:12;8.43;;;3.90;;
52674;SDS011;38569;52.722;6.440;2023-02-28T00:29:39;11.48;;;4.60;;
52674;SDS011;38569;52.722;6.440;2023-02-28T00:32:04;10.50;;;3.97;;
52674;SDS011;38569;52.722;6.440;2023-02-28T00:34:31;10.90;;;4.38;;
52674;SDS011;38569;52.722;6.440;2023-02-28T00:37:03;8.27;;;4.18;;
52674;SDS011;38569;52.722;6.440;2023-02-28T00:39:33;14.25;;;4.43;;
52674;SDS011;38569;52.722;6.440;2023-02-28T00:42:01;6.88;;;3.53;;
52674;SDS011;38569;52.722;6.440;2023-02-28T00:44:28;9.05;;;3.85;;
52674;SDS011;38569;52.722;6.440;2023-02-28T00:46:54;11.13;;;5.20;;
52674;SDS011;38569;52.722;6.440;2023-02-28T00:49:20;9.77;;;4.22;;
52674;SDS011;38569;52.722;6.440;2023-02-28T00:51:47;9.15;;;4.00;;
52674;SDS011;38569;52.722;6.440;2023-02-28T00:54:13;9.45;;;4.63;;
52674;SDS011;38569;52.722;6.440;2023-02-28T00:56:39;8.98;;;3.58;;
52674;SDS011;38569;52.722;6.440;2023-02-28T00:59:05;6.43;;;3.67;;
52674;SDS011;38569;52.722;6.440;2023-02-28T01:01:31;7.63;;;3.78;;
52674;SDS011;38569;52.722;6.440;2023-02-28T01:03:57;12.23;;;4.40;;
52674;SDS011;38569;52.722;6.440;2023-02-28T01:06:23;7.95;;;4.15;;
52674;SDS011;38569;52.722;6.440;2023-02-28T01:08:49;9.75;;;3.35;;
52674;SDS011;38569;52.722;6.440;2023-02-28T01:11:15;11.60;;;4.82;;
52674;SDS011;38569;52.722;6.440;2023-02-28T01:13:43;9.68;;;3.90;;
52674;SDS011;38569;52.722;6.440;2023-02-28T01:16:10;8.40;;;3.72;;
52674;SDS011;38569;52.722;6.440;2023-02-28T01:18:37;9.60;;;4.32;;
52674;SDS011;38569;52.722;6.440;2023-02-28T01:21:04;14.32;;;4.32;;
52674;SDS011;38569;52.722;6.440;2023-02-28T01:23:34;9.57;;;4.75;;
52674;SDS011;38569;52.722;6.440;2023-02-28T01:26:16;9.68;;;4.05;;
52674;SDS011;38569;52.722;6.440;2023-02-28T01:28:46;8.65;;;4.70;;
52674;SDS011;38569;52.722;6.440;2023-02-28T01:31:13;8.55;;;4.68;;
52674;SDS011;38569;52.722;6.440;2023-02-28T01:33:38;6.97;;;3.92;;
52674;SDS011;38569;52.722;6.440;2023-02-28T01:36:06;12.43;;;3.90;;
52674;SDS011;38569;52.722;6.440;2023-02-28T01:38:36;12.75;;;5.55;;
52674;SDS011;38569;52.722;6.440;2023-02-28T01:41:02;14.30;;;4.57;;
52674;SDS011;38569;52.722;6.440;2023-02-28T01:43:35;8.45;;;4.25;;
52674;SDS011;38569;52.722;6.440;2023-02-28T01:46:19;11.13;;;4.25;;
52674;SDS011;38569;52.722;6.440;2023-02-28T01:48:46;8.95;;;4.35;;
52674;SDS011;38569;52.722;6.440;2023-02-28T01:51:42;8.35;;;4.10;;
52674;SDS011;38569;52.722;6.440;2023-02-28T01:54:16;8.90;;;4.03;;
52674;SDS011;38569;52.722;6.440;2023-02-28T01:56:52;6.80;;;4.22;;
52674;SDS011;38569;52.722;6.440;2023-02-28T01:59:22;8.55;;;4.20;;
52674;SDS011;38569;52.722;6.440;2023-02-28T02:01:54;7.07;;;4.23;;
52674;SDS011;38569;52.722;6.440;2023-02-28T02:04:21;7.68;;;4.68;;
52674;SDS011;38569;52.722;6.440;2023-02-28T02:06:51;7.85;;;4.20;;
52674;SDS011;38569;52.722;6.440;2023-02-28T02:09:17;10.38;;;4.30;;
52674;SDS011;38569;52.722;6.440;2023-02-28T02:11:43;10.07;;;4.55;;
52674;SDS011;38569;52.722;6.440;2023-02-28T02:14:18;15.13;;;5.97;;
52674;SDS011;38569;52.722;6.440;2023-02-28T02:25:11;10.70;;;4.85;;
52674;SDS011;38569;52.722;6.440;2023-02-28T02:35:47;13.55;;;6.53;;
52674;SDS011;38569;52.722;6.440;2023-02-28T02:44:10;15.85;;;6.40;;
52674;SDS011;38569;52.722;6.440;2023-02-28T02:46:38;17.95;;;7.20;;
52674;SDS011;38569;52.722;6.440;2023-02-28T02:49:13;11.38;;;6.10;;
52674;SDS011;38569;52.722;6.440;2023-02-28T02:51:46;14.68;;;6.97;;
52674;SDS011;38569;52.722;6.440;2023-02-28T02:54:15;18.50;;;9.45;;
52674;SDS011;38569;52.722;6.440;2023-02-28T02:56:45;15.50;;;9.13;;
52674;SDS011;38569;52.722;6.440;2023-02-28T02:59:14;19.45;;;10.23;;
52674;SDS011;38569;52.722;6.440;2023-02-28T03:01:48;21.23;;;11.27;;
52674;SDS011;38569;52.722;6.440;2023-02-28T03:04:20;16.70;;;11.32;;
52674;SDS011;38569;52.722;6.440;2023-02-28T03:06:47;17.38;;;11.55;;
52674;SDS011;38569;52.722;6.440;2023-02-28T03:09:15;19.45;;;11.20;;
52674;SDS011;38569;52.722;6.440;2023-02-28T03:11:41;19.92;;;11.13;;
52674;SDS011;38569;52.722;6.440;2023-02-28T03:24:45;17.15;;;11.43;;
52674;SDS011;38569;52.722;6.440;2023-02-28T03:35:16;20.42;;;12.27;;
52674;SDS011;38569;52.722;6.440;2023-02-28T03:37:47;17.95;;;11.48;;
52674;SDS011;38569;52.722;6.440;2023-02-28T03:40:21;22.42;;;12.95;;
52674;SDS011;38569;52.722;6.440;2023-02-28T03:42:51;22.05;;;11.80;;
52674;SDS011;38569;52.722;6.440;2023-02-28T03:45:24;20.65;;;13.65;;
52674;SDS011;38569;52.722;6.440;2023-02-28T03:48:01;25.85;;;14.23;;
52674;SDS011;38569;52.722;6.440;2023-02-28T03:50:41;25.52;;;13.48;;
52674;SDS011;38569;52.722;6.440;2023-02-28T03:58:38;26.67;;;13.93;;
52674;SDS011;38569;52.722;6.440;2023-02-28T04:01:15;21.25;;;13.45;;
52674;SDS011;38569;52.722;6.440;2023-02-28T04:03:49;21.73;;;12.43;;
52674;SDS011;38569;52.722;6.440;2023-02-28T04:06:16;24.27;;;13.82;;
52674;SDS011;38569;52.722;6.440;2023-02-28T04:08:44;22.85;;;13.80;;
52674;SDS011;38569;52.722;6.440;2023-02-28T04:13:41;27.38;;;13.65;;
52674;SDS011;38569;52.722;6.440;2023-02-28T04:16:08;25.42;;;15.00;;
52674;SDS011;38569;52.722;6.440;2023-02-28T04:18:40;21.25;;;13.10;;
52674;SDS011;38569;52.722;6.440;2023-02-28T04:21:08;26.52;;;15.10;;
52674;SDS011;38569;52.722;6.440;2023-02-28T04:23:34;22.50;;;14.23;;
52674;SDS011;38569;52.722;6.440;2023-02-28T04:26:00;22.63;;;14.20;;
52674;SDS011;38569;52.722;6.440;2023-02-28T04:28:26;19.08;;;13.85;;
52674;SDS011;38569;52.722;6.440;2023-02-28T04:30:56;23.40;;;12.60;;
52674;SDS011;38569;52.722;6.440;2023-02-28T04:33:26;26.60;;;13.85;;
52674;SDS011;38569;52.722;6.440;2023-02-28T04:36:02;23.55;;;14.35;;
52674;SDS011;38569;52.722;6.440;2023-02-28T04:38:32;27.58;;;16.85;;
52674;SDS011;38569;52.722;6.440;2023-02-28T04:40:59;24.85;;;15.38;;
52674;SDS011;38569;52.722;6.440;2023-02-28T04:43:26;23.35;;;15.93;;
52674;SDS011;38569;52.722;6.440;2023-02-28T04:45:53;27.55;;;15.52;;
52674;SDS011;38569;52.722;6.440;2023-02-28T04:48:22;21.67;;;14.65;;
52674;SDS011;38569;52.722;6.440;2023-02-28T04:50:49;38.15;;;17.90;;
52674;SDS011;38569;52.722;6.440;2023-02-28T04:53:15;29.63;;;15.18;;
52674;SDS011;38569;52.722;6.440;2023-02-28T04:55:41;23.30;;;14.75;;
52674;SDS011;38569;52.722;6.440;2023-02-28T04:58:07;33.45;;;15.60;;
52674;SDS011;38569;52.722;6.440;2023-02-28T05:00:32;28.23;;;16.17;;
52674;SDS011;38569;52.722;6.440;2023-02-28T05:02:58;26.08;;;15.73;;
52674;SDS011;38569;52.722;6.440;2023-02-28T05:05:24;25.77;;;15.82;;
52674;SDS011;38569;52.722;6.440;2023-02-28T05:07:49;28.80;;;16.75;;
52674;SDS011;38569;52.722;6.440;2023-02-28T05:10:15;31.38;;;15.82;;
52674;SDS011;38569;52.722;6.440;2023-02-28T05:12:41;25.38;;;15.10;;
52674;SDS011;38569;52.722;6.440;2023-02-28T05:15:08;23.85;;;15.52;;
52674;SDS011;38569;52.722;6.440;2023-02-28T05:17:38;28.27;;;16.83;;
52674;SDS011;38569;52.722;6.440;2023-02-28T05:20:03;31.55;;;18.30;;
52674;SDS011;38569;52.722;6.440;2023-02-28T05:22:30;26.90;;;16.05;;
52674;SDS011;38569;52.722;6.440;2023-02-28T05:24:55;21.00;;;14.55;;
52674;SDS011;38569;52.722;6.440;2023-02-28T05:27:21;24.65;;;14.70;;
52674;SDS011;38569;52.722;6.440;2023-02-28T05:29:47;27.25;;;15.27;;
52674;SDS011;38569;52.722;6.440;2023-02-28T05:32:13;24.02;;;14.52;;
52674;SDS011;38569;52.722;6.440;2023-02-28T05:34:40;31.60;;;15.45;;
52674;SDS011;38569;52.722;6.440;2023-02-28T05:37:08;25.10;;;15.60;;
52674;SDS011;38569;52.722;6.440;2023-02-28T05:39:37;25.88;;;14.50;;
52674;SDS011;38569;52.722;6.440;2023-02-28T05:42:03;21.98;;;14.80;;
52674;SDS011;38569;52.722;6.440;2023-02-28T05:44:29;24.85;;;14.27;;
52674;SDS011;38569;52.722;6.440;2023-02-28T05:46:55;28.92;;;15.68;;
52674;SDS011;38569;52.722;6.440;2023-02-28T05:49:21;24.25;;;14.98;;
52674;SDS011;38569;52.722;6.440;2023-02-28T05:51:47;27.05;;;13.88;;
52674;SDS011;38569;52.722;6.440;2023-02-28T05:54:13;26.90;;;14.73;;
52674;SDS011;38569;52.722;6.440;2023-02-28T05:56:39;19.73;;;13.85;;
52674;SDS011;38569;52.722;6.440;2023-02-28T05:59:06;22.70;;;13.05;;
52674;SDS011;38569;52.722;6.440;2023-02-28T06:04:02;22.95;;;14.65;;
52674;SDS011;38569;52.722;6.440;2023-02-28T06:06:29;23.60;;;14.32;;
52674;SDS011;38569;52.722;6.440;2023-02-28T06:08:55;26.75;;;14.75;;
52674;SDS011;38569;52.722;6.440;2023-02-28T06:11:22;26.58;;;14.23;;
52674;SDS011;38569;52.722;6.440;2023-02-28T06:13:53;22.27;;;13.60;;
52674;SDS011;38569;52.722;6.440;2023-02-28T06:16:24;24.45;;;14.00;;
52674;SDS011;38569;52.722;6.440;2023-02-28T06:18:50;25.42;;;13.90;;
52674;SDS011;38569;52.722;6.440;2023-02-28T06:21:17;19.73;;;13.80;;
52674;SDS011;38569;52.722;6.440;2023-02-28T06:23:43;21.70;;;13.77;;
52674;SDS011;38569;52.722;6.440;2023-02-28T06:26:09;21.73;;;14.00;;
52674;SDS011;38569;52.722;6.440;2023-02-28T06:28:36;22.45;;;13.57;;
52674;SDS011;38569;52.722;6.440;2023-02-28T06:31:08;26.80;;;14.93;;
52674;SDS011;38569;52.722;6.440;2023-02-28T06:33:37;24.88;;;14.52;;
52674;SDS011;38569;52.722;6.440;2023-02-28T06:36:04;28.02;;;14.52;;
52674;SDS011;38569;52.722;6.440;2023-02-28T06:38:31;25.33;;;16.20;;
52674;SDS011;38569;52.722;6.440;2023-02-28T06:40:58;29.83;;;14.15;;
52674;SDS011;38569;52.722;6.440;2023-02-28T06:43:25;24.45;;;15.25;;
52674;SDS011;38569;52.722;6.440;2023-02-28T06:45:57;30.42;;;14.48;;
52674;SDS011;38569;52.722;6.440;2023-02-28T06:48:24;24.55;;;13.80;;
52674;SDS011;38569;52.722;6.440;2023-02-28T06:50:51;26.52;;;15.68;;
52674;SDS011;38569;52.722;6.440;2023-02-28T06:53:16;21.13;;;14.40;;
52674;SDS011;38569;52.722;6.440;2023-02-28T06:55:42;37.15;;;17.50;;
52674;SDS011;38569;52.722;6.440;2023-02-28T06:58:08;26.85;;;15.90;;
52674;SDS011;38569;52.722;6.440;2023-02-28T07:00:40;28.88;;;16.63;;
52674;SDS011;38569;52.722;6.440;2023-02-28T07:03:07;28.08;;;15.93;;
52674;SDS011;38569;52.722;6.440;2023-02-28T07:05:34;24.10;;;15.02;;
52674;SDS011;38569;52.722;6.440;2023-02-28T07:08:01;31.23;;;16.60;;
52674;SDS011;38569;52.722;6.440;2023-02-28T07:10:28;29.67;;;15.35;;
52674;SDS011;38569;52.722;6.440;2023-02-28T07:12:54;33.65;;;16.80;;
52674;SDS011;38569;52.722;6.440;2023-02-28T07:15:19;24.92;;;16.23;;
52674;SDS011;38569;52.722;6.440;2023-02-28T07:17:45;26.23;;;15.95;;
52674;SDS011;38569;52.722;6.440;2023-02-28T07:20:11;27.45;;;15.50;;
52674;SDS011;38569;52.722;6.440;2023-02-28T07:22:37;23.38;;;14.60;;
52674;SDS011;38569;52.722;6.440;2023-02-28T07:25:04;33.13;;;16.20;;
52674;SDS011;38569;52.722;6.440;2023-02-28T07:27:32;23.58;;;14.90;;
52674;SDS011;38569;52.722;6.440;2023-02-28T07:29:59;20.98;;;14.10;;
52674;SDS011;38569;52.722;6.440;2023-02-28T07:32:28;22.85;;;13.75;;
52674;SDS011;38569;52.722;6.440;2023-02-28T07:34:54;21.73;;;13.30;;
52674;SDS011;38569;52.722;6.440;2023-02-28T07:37:20;21.85;;;13.25;;
52674;SDS011;38569;52.722;6.440;2023-02-28T07:39:46;22.30;;;14.55;;
52674;SDS011;38569;52.722;6.440;2023-02-28T07:42:11;25.52;;;14.82;;
52674;SDS011;38569;52.722;6.440;2023-02-28T07:44:40;23.50;;;14.07;;
52674;SDS011;38569;52.722;6.440;2023-02-28T07:47:08;26.27;;;14.82;;
52674;SDS011;38569;52.722;6.440;2023-02-28T07:49:37;21.20;;;12.70;;
52674;SDS011;38569;52.722;6.440;2023-02-28T07:52:04;21.48;;;14.52;;
52674;SDS011;38569;52.722;6.440;2023-02-28T07:54:31;24.42;;;14.63;;
52674;SDS011;38569;52.722;6.440;2023-02-28T07:56:57;24.48;;;14.20;;
52674;SDS011;38569;52.722;6.440;2023-02-28T07:59:22;37.33;;;18.42;;
52674;SDS011;38569;52.722;6.440;2023-02-28T08:01:48;30.27;;;16.55;;
52674;SDS011;38569;52.722;6.440;2023-02-28T08:04:16;25.40;;;15.25;;
52674;SDS011;38569;52.722;6.440;2023-02-28T08:06:42;21.45;;;13.10;;
52674;SDS011;38569;52.722;6.440;2023-02-28T08:09:08;22.13;;;12.90;;
52674;SDS011;38569;52.722;6.440;2023-02-28T08:11:34;21.90;;;13.90;;
52674;SDS011;38569;52.722;6.440;2023-02-28T08:14:01;20.85;;;13.07;;
52674;SDS011;38569;52.722;6.440;2023-02-28T08:16:27;17.02;;;11.32;;
52674;SDS011;38569;52.722;6.440;2023-02-28T08:18:53;17.77;;;10.25;;
52674;SDS011;38569;52.722;6.440;2023-02-28T08:21:19;14.70;;;9.48;;
52674;SDS011;38569;52.722;6.440;2023-02-28T08:23:49;18.15;;;11.00;;
52674;SDS011;38569;52.722;6.440;2023-02-28T08:26:16;14.85;;;10.60;;
52674;SDS011;38569;52.722;6.440;2023-02-28T08:28:42;21.23;;;10.18;;
52674;SDS011;38569;52.722;6.440;2023-02-28T08:31:13;14.88;;;10.05;;
52674;SDS011;38569;52.722;6.440;2023-02-28T08:33:40;14.90;;;9.32;;
52674;SDS011;38569;52.722;6.440;2023-02-28T08:36:08;14.88;;;10.30;;
52674;SDS011;38569;52.722;6.440;2023-02-28T08:38:34;16.52;;;10.10;;
52674;SDS011;38569;52.722;6.440;2023-02-28T08:41:02;13.75;;;10.50;;
52674;SDS011;38569;52.722;6.440;2023-02-28T08:43:32;14.50;;;8.85;;
52674;SDS011;38569;52.722;6.440;2023-02-28T08:45:58;13.85;;;9.85;;
52674;SDS011;38569;52.722;6.440;2023-02-28T08:48:25;16.48;;;10.23;;
52674;SDS011;38569;52.722;6.440;2023-02-28T08:50:59;17.00;;;10.77;;
52674;SDS011;38569;52.722;6.440;2023-02-28T08:56:03;18.10;;;9.57;;
52674;SDS011;38569;52.722;6.440;2023-02-28T08:58:31;19.10;;;9.50;;
52674;SDS011;38569;52.722;6.440;2023-02-28T09:00:58;12.68;;;8.90;;
52674;SDS011;38569;52.722;6.440;2023-02-28T09:03:24;13.85;;;9.52;;
52674;SDS011;38569;52.722;6.440;2023-02-28T09:05:57;12.10;;;9.68;;
52674;SDS011;38569;52.722;6.440;2023-02-28T09:10:51;15.05;;;10.18;;
52674;SDS011;38569;52.722;6.440;2023-02-28T09:13:17;12.20;;;7.50;;
52674;SDS011;38569;52.722;6.440;2023-02-28T09:15:43;10.88;;;7.20;;
52674;SDS011;38569;52.722;6.440;2023-02-28T09:18:09;10.88;;;5.30;;
52674;SDS011;38569;52.722;6.440;2023-02-28T09:20:39;11.32;;;6.70;;
52674;SDS011;38569;52.722;6.440;2023-02-28T09:23:06;10.50;;;6.03;;
52674;SDS011;38569;52.722;6.440;2023-02-28T09:25:33;6.97;;;5.93;;
52674;SDS011;38569;52.722;6.440;2023-02-28T09:27:59;11.05;;;6.28;;
52674;SDS011;38569;52.722;6.440;2023-02-28T09:30:25;10.88;;;6.88;;
52674;SDS011;38569;52.722;6.440;2023-02-28T09:32:51;10.25;;;6.18;;
52674;SDS011;38569;52.722;6.440;2023-02-28T09:35:19;10.32;;;6.45;;
52674;SDS011;38569;52.722;6.440;2023-02-28T09:37:50;10.43;;;7.68;;
52674;SDS011;38569;52.722;6.440;2023-02-28T09:40:21;9.45;;;6.50;;
52674;SDS011;38569;52.722;6.440;2023-02-28T09:42:49;8.35;;;6.78;;
52674;SDS011;38569;52.722;6.440;2023-02-28T09:45:23;11.18;;;6.97;;
52674;SDS011;38569;52.722;6.440;2023-02-28T09:48:12;9.38;;;6.35;;
52674;SDS011;38569;52.722;6.440;2023-02-28T09:50:46;8.20;;;6.03;;
52674;SDS011;38569;52.722;6.440;2023-02-28T09:55:53;6.68;;;3.78;;
52674;SDS011;38569;52.722;6.440;2023-02-28T09:58:26;7.50;;;4.53;;
52674;SDS011;38569;52.722;6.440;2023-02-28T10:01:09;5.65;;;3.95;;
52674;SDS011;38569;52.722;6.440;2023-02-28T10:03:46;4.70;;;3.05;;
52674;SDS011;38569;52.722;6.440;2023-02-28T10:06:21;6.07;;;2.90;;
52674;SDS011;38569;52.722;6.440;2023-02-28T10:11:40;4.45;;;2.28;;
52674;SDS011;38569;52.722;6.440;2023-02-28T10:14:18;2.47;;;1.73;;
52674;SDS011;38569;52.722;6.440;2023-02-28T10:16:47;4.55;;;2.08;;
52674;SDS011;38569;52.722;6.440;2023-02-28T10:22:19;3.22;;;2.25;;
52674;SDS011;38569;52.722;6.440;2023-02-28T10:24:49;3.60;;;2.25;;
52674;SDS011;38569;52.722;6.440;2023-02-28T10:27:20;3.60;;;2.22;;
52674;SDS011;38569;52.722;6.440;2023-02-28T10:29:48;4.65;;;2.70;;
52674;SDS011;38569;52.722;6.440;2023-02-28T10:32:17;3.53;;;1.90;;
52674;SDS011;38569;52.722;6.440;2023-02-28T10:34:51;8.25;;;2.08;;
52674;SDS011;38569;52.722;6.440;2023-02-28T10:37:24;4.38;;;2.28;;
52674;SDS011;38569;52.722;6.440;2023-02-28T10:39:50;2.85;;;2.10;;
52674;SDS011;38569;52.722;6.440;2023-02-28T10:42:23;2.88;;;1.80;;
52674;SDS011;38569;52.722;6.440;2023-02-28T10:47:42;3.88;;;2.17;;
52674;SDS011;38569;52.722;6.440;2023-02-28T10:50:32;4.23;;;2.00;;
52674;SDS011;38569;52.722;6.440;2023-02-28T10:55:41;13.13;;;3.17;;
52674;SDS011;38569;52.722;6.440;2023-02-28T10:58:24;6.07;;;2.65;;
52674;SDS011;38569;52.722;6.440;2023-02-28T11:03:36;4.07;;;1.88;;
52674;SDS011;38569;52.722;6.440;2023-02-28T11:06:06;4.57;;;2.40;;
52674;SDS011;38569;52.722;6.440;2023-02-28T11:08:33;3.15;;;2.03;;
52674;SDS011;38569;52.722;6.440;2023-02-28T11:11:08;4.03;;;2.47;;
52674;SDS011;38569;52.722;6.440;2023-02-28T11:13:34;3.40;;;2.40;;
52674;SDS011;38569;52.722;6.440;2023-02-28T11:16:04;7.55;;;3.13;;
52674;SDS011;38569;52.722;6.440;2023-02-28T11:21:17;3.72;;;2.20;;
52674;SDS011;38569;52.722;6.440;2023-02-28T11:23:51;4.75;;;2.10;;
52674;SDS011;38569;52.722;6.440;2023-02-28T11:26:40;3.60;;;1.92;;
52674;SDS011;38569;52.722;6.440;2023-02-28T11:29:21;4.05;;;2.00;;
52674;SDS011;38569;52.722;6.440;2023-02-28T11:34:28;4.55;;;1.98;;
52674;SDS011;38569;52.722;6.440;2023-02-28T11:36:55;4.00;;;1.42;;
52674;SDS011;38569;52.722;6.440;2023-02-28T11:39:23;10.82;;;3.38;;
52674;SDS011;38569;52.722;6.440;2023-02-28T11:46:59;3.13;;;1.48;;
52674;SDS011;38569;52.722;6.440;2023-02-28T11:52:10;6.05;;;1.70;;
52674;SDS011;38569;52.722;6.440;2023-02-28T11:55:05;3.97;;;1.90;;
52674;SDS011;38569;52.722;6.440;2023-02-28T12:06:36;3.03;;;1.48;;
52674;SDS011;38569;52.722;6.440;2023-02-28T12:15:00;3.72;;;1.67;;
52674;SDS011;38569;52.722;6.440;2023-02-28T12:25:52;3.38;;;1.60;;
52674;SDS011;38569;52.722;6.440;2023-02-28T12:28:30;2.28;;;1.45;;
52674;SDS011;38569;52.722;6.440;2023-02-28T12:33:34;4.80;;;1.90;;
52674;SDS011;38569;52.722;6.440;2023-02-28T12:36:11;3.00;;;1.48;;
52674;SDS011;38569;52.722;6.440;2023-02-28T12:39:18;3.47;;;1.65;;
52674;SDS011;38569;52.722;6.440;2023-02-28T12:44:43;4.13;;;1.60;;
52674;SDS011;38569;52.722;6.440;2023-02-28T12:47:13;3.80;;;1.52;;
52674;SDS011;38569;52.722;6.440;2023-02-28T12:49:42;3.55;;;1.20;;
52674;SDS011;38569;52.722;6.440;2023-02-28T12:52:15;2.90;;;1.70;;
52674;SDS011;38569;52.722;6.440;2023-02-28T12:54:52;3.63;;;1.70;;
52674;SDS011;38569;52.722;6.440;2023-02-28T12:57:34;4.43;;;1.58;;
52674;SDS011;38569;52.722;6.440;2023-02-28T13:00:12;2.42;;;1.52;;
52674;SDS011;38569;52.722;6.440;2023-02-28T13:11:06;3.22;;;1.92;;
52674;SDS011;38569;52.722;6.440;2023-02-28T13:13:32;4.82;;;1.95;;
52674;SDS011;38569;52.722;6.440;2023-02-28T13:18:38;2.80;;;1.65;;
52674;SDS011;38569;52.722;6.440;2023-02-28T13:21:29;4.57;;;2.00;;
52674;SDS011;38569;52.722;6.440;2023-02-28T13:24:00;2.42;;;1.77;;
52674;SDS011;38569;52.722;6.440;2023-02-28T13:29:00;3.85;;;2.20;;
52674;SDS011;38569;52.722;6.440;2023-02-28T13:31:29;2.67;;;1.90;;
52674;SDS011;38569;52.722;6.440;2023-02-28T13:36:30;2.70;;;1.92;;
52674;SDS011;38569;52.722;6.440;2023-02-28T13:39:00;3.25;;;1.85;;
52674;SDS011;38569;52.722;6.440;2023-02-28T13:44:06;4.85;;;2.13;;
52674;SDS011;38569;52.722;6.440;2023-02-28T13:46:34;3.20;;;1.83;;
52674;SDS011;38569;52.722;6.440;2023-02-28T13:52:00;2.97;;;2.10;;
52674;SDS011;38569;52.722;6.440;2023-02-28T14:00:41;3.40;;;1.92;;
52674;SDS011;38569;52.722;6.440;2023-02-28T14:05:47;3.20;;;1.70;;
52674;SDS011;38569;52.722;6.440;2023-02-28T14:08:32;3.95;;;2.20;;
52674;SDS011;38569;52.722;6.440;2023-02-28T14:11:04;3.97;;;2.13;;
52674;SDS011;38569;52.722;6.440;2023-02-28T14:13:39;2.50;;;1.92;;
52674;SDS011;38569;52.722;6.440;2023-02-28T14:16:17;3.17;;;1.92;;
52674;SDS011;38569;52.722;6.440;2023-02-28T14:18:51;2.78;;;1.90;;
52674;SDS011;38569;52.722;6.440;2023-02-28T14:21:32;5.18;;;2.20;;
52674;SDS011;38569;52.722;6.440;2023-02-28T14:32:27;2.85;;;1.63;;
52674;SDS011;38569;52.722;6.440;2023-02-28T14:38:05;4.15;;;1.85;;
52674;SDS011;38569;52.722;6.440;2023-02-28T14:40:38;3.45;;;2.00;;
52674;SDS011;38569;52.722;6.440;2023-02-28T14:43:16;3.83;;;2.42;;
52674;SDS011;38569;52.722;6.440;2023-02-28T14:45:52;6.13;;;2.20;;
52674;SDS011;38569;52.722;6.440;2023-02-28T14:48:20;5.78;;;2.42;;
52674;SDS011;38569;52.722;6.440;2023-02-28T14:50:57;7.25;;;2.65;;
52674;SDS011;38569;52.722;6.440;2023-02-28T14:53:34;14.48;;;4.03;;
52674;SDS011;38569;52.722;6.440;2023-02-28T14:56:01;5.65;;;2.47;;
52674;SDS011;38569;52.722;6.440;2023-02-28T14:58:28;3.53;;;2.00;;
52674;SDS011;38569;52.722;6.440;2023-02-28T15:00:57;4.38;;;2.70;;
52674;SDS011;38569;52.722;6.440;2023-02-28T15:03:29;3.97;;;2.00;;
52674;SDS011;38569;52.722;6.440;2023-02-28T15:05:59;5.03;;;2.50;;
52674;SDS011;38569;52.722;6.440;2023-02-28T15:08:29;3.10;;;2.30;;
52674;SDS011;38569;52.722;6.440;2023-02-28T15:13:45;6.47;;;2.67;;
52674;SDS011;38569;52.722;6.440;2023-02-28T15:21:17;3.08;;;2.13;;
52674;SDS011;38569;52.722;6.440;2023-02-28T15:23:46;8.07;;;2.42;;
52674;SDS011;38569;52.722;6.440;2023-02-28T15:26:20;3.87;;;2.00;;
52674;SDS011;38569;52.722;6.440;2023-02-28T15:28:54;6.22;;;2.78;;
52674;SDS011;38569;52.722;6.440;2023-02-28T15:31:32;3.90;;;2.60;;
52674;SDS011;38569;52.722;6.440;2023-02-28T15:34:04;3.33;;;2.30;;
52674;SDS011;38569;52.722;6.440;2023-02-28T15:36:32;3.92;;;2.38;;
52674;SDS011;38569;52.722;6.440;2023-02-28T15:39:02;6.60;;;2.83;;
52674;SDS011;38569;52.722;6.440;2023-02-28T15:41:43;4.57;;;2.47;;
52674;SDS011;38569;52.722;6.440;2023-02-28T15:44:25;4.53;;;2.30;;
52674;SDS011;38569;52.722;6.440;2023-02-28T15:46:58;7.25;;;2.35;;
52674;SDS011;38569;52.722;6.440;2023-02-28T15:49:27;5.03;;;2.55;;
52674;SDS011;38569;52.722;6.440;2023-02-28T15:51:55;3.75;;;2.13;;
52674;SDS011;38569;52.722;6.440;2023-02-28T15:54:27;5.22;;;2.45;;
52674;SDS011;38569;52.722;6.440;2023-02-28T15:56:57;3.63;;;2.70;;
52674;SDS011;38569;52.722;6.440;2023-02-28T15:59:33;4.63;;;2.58;;
52674;SDS011;38569;52.722;6.440;2023-02-28T16:02:18;4.93;;;2.35;;
52674;SDS011;38569;52.722;6.440;2023-02-28T16:07:26;4.55;;;2.50;;
52674;SDS011;38569;52.722;6.440;2023-02-28T16:09:53;3.95;;;2.83;;
52674;SDS011;38569;52.722;6.440;2023-02-28T16:12:19;4.40;;;2.63;;
52674;SDS011;38569;52.722;6.440;2023-02-28T16:14:48;4.70;;;3.33;;
52674;SDS011;38569;52.722;6.440;2023-02-28T16:17:19;5.18;;;3.88;;
52674;SDS011;38569;52.722;6.440;2023-02-28T16:19:46;7.35;;;3.60;;
52674;SDS011;38569;52.722;6.440;2023-02-28T16:22:12;4.97;;;3.05;;
52674;SDS011;38569;52.722;6.440;2023-02-28T16:24:38;5.97;;;3.22;;
52674;SDS011;38569;52.722;6.440;2023-02-28T16:27:05;4.68;;;3.20;;
52674;SDS011;38569;52.722;6.440;2023-02-28T16:29:32;6.85;;;4.70;;
52674;SDS011;38569;52.722;6.440;2023-02-28T16:32:00;5.90;;;3.58;;
52674;SDS011;38569;52.722;6.440;2023-02-28T16:34:28;6.00;;;4.10;;
52674;SDS011;38569;52.722;6.440;2023-02-28T16:36:54;5.57;;;4.10;;
52674;SDS011;38569;52.722;6.440;2023-02-28T16:39:20;5.30;;;3.83;;
52674;SDS011;38569;52.722;6.440;2023-02-28T16:41:46;7.43;;;4.53;;
52674;SDS011;38569;52.722;6.440;2023-02-28T16:44:35;8.32;;;4.20;;
52674;SDS011;38569;52.722;6.440;2023-02-28T16:47:01;5.15;;;3.83;;
52674;SDS011;38569;52.722;6.440;2023-02-28T16:49:28;10.48;;;7.38;;
52674;SDS011;38569;52.722;6.440;2023-02-28T16:51:54;7.43;;;4.75;;
52674;SDS011;38569;52.722;6.440;2023-02-28T16:54:19;10.98;;;6.03;;
52674;SDS011;38569;52.722;6.440;2023-02-28T16:56:46;6.20;;;4.65;;
52674;SDS011;38569;52.722;6.440;2023-02-28T16:59:13;9.13;;;4.20;;
52674;SDS011;38569;52.722;6.440;2023-02-28T17:01:43;5.55;;;3.90;;
52674;SDS011;38569;52.722;6.440;2023-02-28T17:04:10;9.23;;;5.57;;
52674;SDS011;38569;52.722;6.440;2023-02-28T17:06:36;10.25;;;7.20;;
52674;SDS011;38569;52.722;6.440;2023-02-28T17:09:02;7.25;;;5.80;;
52674;SDS011;38569;52.722;6.440;2023-02-28T17:11:28;5.10;;;4.20;;
52674;SDS011;38569;52.722;6.440;2023-02-28T17:13:54;6.60;;;4.05;;
52674;SDS011;38569;52.722;6.440;2023-02-28T17:16:22;7.72;;;5.00;;
52674;SDS011;38569;52.722;6.440;2023-02-28T17:18:55;9.77;;;5.55;;
52674;SDS011;38569;52.722;6.440;2023-02-28T17:21:23;12.30;;;5.47;;
52674;SDS011;38569;52.722;6.440;2023-02-28T17:23:49;6.82;;;4.88;;
52674;SDS011;38569;52.722;6.440;2023-02-28T17:26:16;9.02;;;5.35;;
52674;SDS011;38569;52.722;6.440;2023-02-28T17:28:45;6.55;;;5.15;;
52674;SDS011;38569;52.722;6.440;2023-02-28T17:31:11;7.20;;;4.80;;
52674;SDS011;38569;52.722;6.440;2023-02-28T17:33:37;9.07;;;5.35;;
52674;SDS011;38569;52.722;6.440;2023-02-28T17:36:03;11.57;;;5.38;;